createdAt,value
2022-12-20T00:00:14.742Z,15.3
2022-12-20T00:01:22.831Z,14.3
2022-12-20T00:02:35.220Z,15.4
2022-12-20T00:03:42.266Z,15.8
2022-12-20T00:04:50.337Z,15.3
2022-12-20T00:05:57.723Z,15.1
2022-12-20T00:07:05.141Z,15.3
2022-12-20T00:08:12.283Z,15.3
2022-12-20T00:09:20.259Z,16.3
2022-12-20T00:10:27.387Z,16
2022-12-20T00:11:34.745Z,14.7
2022-12-20T00:12:41.833Z,14.8
2022-12-20T00:13:48.801Z,14.3
2022-12-20T00:14:55.896Z,15.7
2022-12-20T00:16:03.796Z,16.2
2022-12-20T00:17:13.656Z,14.9
2022-12-20T00:18:20.812Z,15.7
2022-12-20T00:19:28.793Z,14.4
2022-12-20T00:20:36.995Z,14.7
2022-12-20T00:21:44.262Z,14.9
2022-12-20T00:22:51.265Z,15.5
2022-12-20T00:23:58.423Z,14.9
2022-12-20T00:25:06.459Z,15.6
2022-12-20T00:26:13.719Z,14.2
2022-12-20T00:27:21.034Z,14.6
2022-12-20T00:28:28.027Z,14.9
2022-12-20T00:29:35.599Z,15.7
2022-12-20T00:30:42.791Z,14.8
2022-12-20T00:31:50.782Z,14.6
2022-12-20T00:32:58.892Z,15.2
2022-12-20T00:34:06.255Z,16
2022-12-20T00:35:13.311Z,14.9
2022-12-20T00:36:21.297Z,15.1
2022-12-20T00:37:28.607Z,13.6
2022-12-20T00:38:35.836Z,14
2022-12-20T00:39:42.972Z,14.4
2022-12-20T00:40:51.695Z,14.5
2022-12-20T00:42:07.119Z,14
2022-12-20T00:43:14.669Z,14.4
2022-12-20T00:44:21.927Z,14.3
2022-12-20T00:45:28.991Z,14.1
2022-12-20T00:46:36.234Z,14.3
2022-12-20T00:47:43.484Z,13.5
2022-12-20T00:48:51.682Z,14.2
2022-12-20T00:49:59.261Z,14.3
2022-12-20T00:51:06.908Z,14.4
2022-12-20T00:52:17.740Z,15.5
2022-12-20T00:53:26.580Z,15
2022-12-20T00:54:33.054Z,14.1
2022-12-20T00:55:40.227Z,14
2022-12-20T00:56:48.112Z,17.2
2022-12-20T00:57:55.388Z,15.8
2022-12-20T00:59:02.727Z,18.7
2022-12-20T01:00:10.964Z,17.2
2022-12-20T01:01:18.494Z,17.6
2022-12-20T01:02:28.786Z,16.9
2022-12-20T01:03:36.848Z,16.3
2022-12-20T01:04:44.240Z,16.2
2022-12-20T01:05:52.534Z,16.7
2022-12-20T01:06:59.590Z,15.2
2022-12-20T01:08:07.062Z,15.8
2022-12-20T01:09:15.722Z,16.4
2022-12-20T01:10:23.262Z,16
2022-12-20T01:11:31.536Z,15.1
2022-12-20T01:12:38.755Z,15.8
2022-12-20T01:13:46.661Z,14.8
2022-12-20T01:14:53.957Z,16.3
2022-12-20T01:16:02.045Z,16.3
2022-12-20T01:17:12.313Z,18.6
2022-12-20T01:18:20.334Z,17.4
2022-12-20T01:19:27.494Z,15.4
2022-12-20T01:20:34.770Z,15.2
2022-12-20T01:21:43.098Z,13.8
2022-12-20T01:22:50.402Z,15.8
2022-12-20T01:23:58.511Z,15.8
2022-12-20T01:25:05.883Z,14.8
2022-12-20T01:26:13.497Z,17.8
2022-12-20T01:27:20.498Z,16.1
2022-12-20T01:28:27.599Z,15.6
2022-12-20T01:29:35.571Z,15.7
2022-12-20T01:30:45.443Z,15.8
2022-12-20T01:31:52.573Z,16.8
2022-12-20T01:32:59.566Z,16.5
2022-12-20T01:34:06.638Z,15.7
2022-12-20T01:35:13.872Z,15.4
2022-12-20T01:36:21.021Z,15.7
2022-12-20T01:37:31.353Z,15.5
2022-12-20T01:38:39.628Z,15.4
2022-12-20T01:39:46.993Z,16.2
2022-12-20T01:40:54.368Z,16.9
2022-12-20T01:42:01.594Z,16.5
2022-12-20T01:43:08.707Z,16.5
2022-12-20T01:44:15.850Z,15.1
2022-12-20T01:45:22.980Z,15.2
2022-12-20T01:46:30.400Z,15.2
2022-12-20T01:47:37.754Z,15.3
2022-12-20T01:48:44.713Z,15.2
2022-12-20T01:49:58.562Z,15.3
2022-12-20T01:51:05.629Z,14.4
2022-12-20T01:52:14.519Z,15
2022-12-20T01:53:21.938Z,14.2
2022-12-20T01:54:29.015Z,14.3
2022-12-20T01:55:36.138Z,15.2
2022-12-20T01:56:44.120Z,14.9
2022-12-20T01:57:51.383Z,13.9
2022-12-20T01:59:04.755Z,14.5
2022-12-20T02:00:12.502Z,14.3
2022-12-20T02:01:19.934Z,14.1
2022-12-20T02:02:29.100Z,14
2022-12-20T02:03:36.415Z,14.3
2022-12-20T02:04:43.759Z,13.9
2022-12-20T02:05:50.850Z,15.3
2022-12-20T02:06:58.069Z,14.1
2022-12-20T02:08:05.103Z,14.1
2022-12-20T02:09:12.218Z,14.5
2022-12-20T02:10:20.044Z,13.9
2022-12-20T02:11:26.866Z,14.6
2022-12-20T02:12:44.424Z,15.6
2022-12-20T02:13:51.903Z,15.1
2022-12-20T02:14:59.988Z,14.9
2022-12-20T02:16:12.451Z,15
2022-12-20T02:17:20.308Z,14.5
2022-12-20T02:18:38.093Z,15.4
2022-12-20T02:19:44.994Z,16.3
2022-12-20T02:21:00.164Z,15.8
2022-12-20T02:22:10.450Z,15
2022-12-20T02:23:27.813Z,15
2022-12-20T02:24:41.537Z,15.6
2022-12-20T02:25:58.956Z,14
2022-12-20T02:27:14.858Z,14.6
2022-12-20T02:28:27.502Z,14.8
2022-12-20T02:29:34.406Z,14.8
2022-12-20T02:30:41.798Z,15.1
2022-12-20T02:31:49.139Z,15
2022-12-20T02:32:57.163Z,14.2
2022-12-20T02:34:06.424Z,14
2022-12-20T02:35:13.608Z,15
2022-12-20T02:36:24.628Z,14.5
2022-12-20T02:37:31.889Z,13.4
2022-12-20T02:38:39.145Z,15.4
2022-12-20T02:39:46.958Z,14.8
2022-12-20T02:40:54.238Z,14.5
2022-12-20T02:42:01.492Z,14.6
2022-12-20T02:43:11.041Z,13.2
2022-12-20T02:44:23.415Z,14.2
2022-12-20T02:45:35.747Z,14.1
2022-12-20T02:46:42.529Z,14.9
2022-12-20T02:47:49.701Z,15.4
2022-12-20T02:48:56.738Z,15.7
2022-12-20T02:50:03.982Z,15.3
2022-12-20T02:51:11.081Z,13.7
2022-12-20T02:52:18.717Z,14
2022-12-20T02:53:26.577Z,15.8
2022-12-20T02:54:33.425Z,15.7
2022-12-20T02:55:40.589Z,15.5
2022-12-20T02:56:52.649Z,14.5
2022-12-20T02:58:00.482Z,15.9
2022-12-20T02:59:07.117Z,15.2
2022-12-20T03:00:17.908Z,14.1
2022-12-20T03:01:25.901Z,14.6
2022-12-20T03:02:38.293Z,14.5
2022-12-20T03:03:51.198Z,14.8
2022-12-20T03:04:59.265Z,15.2
2022-12-20T03:06:07.531Z,14.4
2022-12-20T03:07:14.653Z,14.4
2022-12-20T03:08:23.287Z,13.7
2022-12-20T03:09:30.674Z,13.4
2022-12-20T03:10:37.707Z,14.9
2022-12-20T03:11:45.331Z,14.6
2022-12-20T03:12:52.600Z,14
2022-12-20T03:14:00.057Z,15.9
2022-12-20T03:15:07.861Z,15.6
2022-12-20T03:16:15.326Z,15.4
2022-12-20T03:17:23.902Z,15.6
2022-12-20T03:18:30.976Z,14.6
2022-12-20T03:19:39.137Z,14.9
2022-12-20T03:20:45.963Z,14.8
2022-12-20T03:21:54.018Z,14.3
2022-12-20T03:23:01.422Z,15.3
2022-12-20T03:24:08.399Z,15.2
2022-12-20T03:25:15.639Z,13.9
2022-12-20T03:26:23.798Z,14.2
2022-12-20T03:27:30.889Z,14.9
2022-12-20T03:28:37.987Z,14
2022-12-20T03:29:44.865Z,14.8
2022-12-20T03:30:52.473Z,14.3
2022-12-20T03:31:59.639Z,14.8
2022-12-20T03:33:07.054Z,14.2
2022-12-20T03:34:13.995Z,14.1
2022-12-20T03:35:21.125Z,14.8
2022-12-20T03:36:28.528Z,14.4
2022-12-20T03:37:35.869Z,14.5
2022-12-20T03:38:42.994Z,14
2022-12-20T03:39:50.429Z,16.4
2022-12-20T03:40:57.700Z,14.9
2022-12-20T03:42:05.648Z,14.2
2022-12-20T03:43:12.916Z,14.4
2022-12-20T03:44:20.006Z,15.7
2022-12-20T03:45:27.181Z,15.5
2022-12-20T03:46:34.495Z,14.1
2022-12-20T03:47:41.544Z,14.3
2022-12-20T03:48:49.389Z,15.1
2022-12-20T03:49:56.685Z,14.2
2022-12-20T03:51:03.770Z,15.1
2022-12-20T03:52:10.937Z,14.8
2022-12-20T03:53:18.322Z,15.1
2022-12-20T03:54:25.396Z,14.9
2022-12-20T03:55:32.256Z,15
2022-12-20T03:56:40.461Z,15.6
2022-12-20T03:57:47.426Z,15.7
2022-12-20T03:58:54.853Z,14.8
2022-12-20T04:00:02.708Z,15.3
2022-12-20T04:01:09.883Z,16.2
2022-12-20T04:02:20.282Z,17
2022-12-20T04:03:27.441Z,15.9
2022-12-20T04:04:34.868Z,17
2022-12-20T04:05:43.233Z,17.5
2022-12-20T04:06:50.345Z,18.2
2022-12-20T04:07:57.617Z,17.6
2022-12-20T04:09:06.279Z,17.8
2022-12-20T04:10:13.927Z,17.8
2022-12-20T04:11:21.202Z,17.9
2022-12-20T04:12:28.363Z,16.9
2022-12-20T04:13:35.641Z,17
2022-12-20T04:14:42.754Z,16.8
2022-12-20T04:15:50.653Z,16
2022-12-20T04:16:56.963Z,16.3
2022-12-20T04:18:03.962Z,17.9
2022-12-20T04:19:11.253Z,16.5
2022-12-20T04:20:18.921Z,16.8
2022-12-20T04:21:25.832Z,16.4
2022-12-20T04:22:33.857Z,16.2
2022-12-20T04:23:41.237Z,16.8
2022-12-20T04:24:48.285Z,15
2022-12-20T04:25:56.114Z,16.3
2022-12-20T04:27:03.779Z,16.7
2022-12-20T04:28:11.443Z,16.5
2022-12-20T04:29:18.739Z,15.9
2022-12-20T04:30:26.021Z,16.5
2022-12-20T04:31:33.290Z,15.6
2022-12-20T04:32:40.372Z,15.8
2022-12-20T04:33:50.178Z,16.9
2022-12-20T04:34:57.522Z,16.4
2022-12-20T04:36:04.475Z,16.9
2022-12-20T04:37:11.619Z,16.3
2022-12-20T04:38:18.958Z,16.8
2022-12-20T04:39:26.008Z,16.7
2022-12-20T04:40:34.342Z,16.1
2022-12-20T04:41:42.191Z,16.2
2022-12-20T04:42:50.265Z,16
2022-12-20T04:43:57.578Z,16.6
2022-12-20T04:45:04.885Z,16.2
2022-12-20T04:46:12.537Z,15.9
2022-12-20T04:47:20.027Z,18.3
2022-12-20T04:49:35.364Z,16.8
2022-12-20T04:50:42.660Z,16.7
2022-12-20T04:51:52.844Z,16.5
2022-12-20T04:52:59.986Z,17.1
2022-12-20T04:54:12.574Z,16.5
2022-12-20T04:55:20.238Z,15.8
2022-12-20T04:56:28.686Z,15.3
2022-12-20T04:57:36.062Z,15.3
2022-12-20T04:58:43.524Z,16.2
2022-12-20T04:59:50.862Z,16.7
2022-12-20T05:00:58.435Z,17.1
2022-12-20T05:02:06.907Z,16.8
2022-12-20T05:03:13.920Z,17.1
2022-12-20T05:04:24.016Z,17.2
2022-12-20T05:05:31.054Z,15.9
2022-12-20T05:06:38.323Z,16
2022-12-20T05:07:45.337Z,15.8
2022-12-20T05:08:53.450Z,16.5
2022-12-20T05:10:01.998Z,16.5
2022-12-20T05:11:09.249Z,17.4
2022-12-20T05:12:16.758Z,16.6
2022-12-20T05:13:23.946Z,17.2
2022-12-20T05:14:31.091Z,16.4
2022-12-20T05:15:39.331Z,16.3
2022-12-20T05:16:46.360Z,18.3
2022-12-20T05:17:53.498Z,16.4
2022-12-20T05:19:03.697Z,17.3
2022-12-20T05:20:10.719Z,17.1
2022-12-20T05:21:17.865Z,17.3
2022-12-20T05:22:30.165Z,16.6
2022-12-20T05:23:42.357Z,16.8
2022-12-20T05:24:56.787Z,17.4
2022-12-20T05:26:09.398Z,17.7
2022-12-20T05:27:21.491Z,16.4
2022-12-20T05:28:28.674Z,16.9
2022-12-20T05:29:35.838Z,16.1
2022-12-20T05:30:43.034Z,17.5
2022-12-20T05:31:50.868Z,15.8
2022-12-20T05:32:58.070Z,16.6
2022-12-20T05:34:06.395Z,16.9
2022-12-20T05:35:13.572Z,17.5
2022-12-20T05:36:20.508Z,17.9
2022-12-20T05:37:27.787Z,18.3
2022-12-20T05:38:35.877Z,16.5
2022-12-20T05:39:43.786Z,16.8
2022-12-20T05:40:50.991Z,18.2
2022-12-20T05:41:59.215Z,18
2022-12-20T05:43:07.646Z,17.2
2022-12-20T05:44:14.881Z,17.4
2022-12-20T05:45:22.089Z,18.9
2022-12-20T05:46:30.224Z,17.1
2022-12-20T05:47:37.350Z,18.1
2022-12-20T05:48:44.456Z,17.4
2022-12-20T05:49:51.486Z,18.3
2022-12-20T05:50:59.023Z,18.5
2022-12-20T05:52:06.302Z,16.7
2022-12-20T05:53:14.434Z,18.6
2022-12-20T05:54:21.781Z,18.2
2022-12-20T05:55:28.819Z,17.4
2022-12-20T05:56:36.770Z,18
2022-12-20T05:57:43.893Z,17.4
2022-12-20T05:58:51.212Z,17.9
2022-12-20T05:59:58.645Z,18.6
2022-12-20T06:01:05.727Z,17.8
2022-12-20T06:02:13.334Z,19.3
2022-12-20T06:03:20.230Z,17.7
2022-12-20T06:04:27.170Z,18.2
2022-12-20T06:05:35.946Z,18.4
2022-12-20T06:06:43.062Z,19.6
2022-12-20T06:07:49.962Z,19.1
2022-12-20T06:08:57.549Z,18.5
2022-12-20T06:10:05.015Z,19.2
2022-12-20T06:11:12.504Z,19.3
2022-12-20T06:12:19.550Z,19.7
2022-12-20T06:13:26.665Z,20.5
2022-12-20T06:14:34.207Z,19.2
2022-12-20T06:15:41.681Z,18
2022-12-20T06:16:49.173Z,19.1
2022-12-20T06:17:56.625Z,17.5
2022-12-20T06:19:04.844Z,19
2022-12-20T06:20:12.139Z,17.9
2022-12-20T06:21:19.450Z,18.7
2022-12-20T06:22:26.750Z,18
2022-12-20T06:23:33.883Z,19.3
2022-12-20T06:24:46.114Z,18.8
2022-12-20T06:25:49.307Z,18.3
2022-12-20T06:26:57.266Z,18
2022-12-20T06:28:04.575Z,18.9
2022-12-20T06:29:11.835Z,18.9
2022-12-20T06:30:20.272Z,20.5
2022-12-20T06:31:28.625Z,19.3
2022-12-20T06:32:35.666Z,20.4
2022-12-20T06:33:43.476Z,18.5
2022-12-20T06:34:50.745Z,18.8
2022-12-20T06:35:57.690Z,19.3
2022-12-20T06:37:05.040Z,18.8
2022-12-20T06:38:12.174Z,18.2
2022-12-20T06:39:19.085Z,17.5
2022-12-20T06:40:26.229Z,19.9
2022-12-20T06:41:34.396Z,19.8
2022-12-20T06:42:41.675Z,18.8
2022-12-20T06:43:49.592Z,18.9
2022-12-20T06:44:56.683Z,20.2
2022-12-20T06:46:04.070Z,20.5
2022-12-20T06:47:10.897Z,18.8
2022-12-20T06:48:18.918Z,18.1
2022-12-20T06:49:27.019Z,19
2022-12-20T06:50:34.334Z,18.8
2022-12-20T06:51:41.488Z,18.9
2022-12-20T06:52:48.523Z,19
2022-12-20T06:53:55.662Z,18.9
2022-12-20T06:55:03.563Z,18.4
2022-12-20T06:56:11.065Z,18.5
2022-12-20T06:57:18.304Z,19.3
2022-12-20T06:58:26.373Z,19.8
2022-12-20T06:59:33.673Z,18.6
2022-12-20T07:00:41.024Z,18.7
2022-12-20T07:01:48.715Z,20.4
2022-12-20T07:02:55.843Z,18.7
2022-12-20T07:04:02.764Z,18.6
2022-12-20T07:05:09.911Z,17.6
2022-12-20T07:06:17.029Z,18.7
2022-12-20T07:07:24.161Z,18.4
2022-12-20T07:08:31.234Z,17.8
2022-12-20T07:09:38.674Z,19.7
2022-12-20T07:10:45.994Z,23
2022-12-20T07:11:53.075Z,20.6
2022-12-20T07:13:00.414Z,18.9
2022-12-20T07:14:09.211Z,19
2022-12-20T07:15:16.675Z,19.2
2022-12-20T07:16:23.710Z,20.8
2022-12-20T07:17:30.948Z,19.4
2022-12-20T07:18:38.003Z,19.8
2022-12-20T07:19:50.440Z,20.2
2022-12-20T07:20:52.052Z,18.8
2022-12-20T07:21:59.276Z,19.5
2022-12-20T07:23:07.458Z,20
2022-12-20T07:24:14.523Z,20.6
2022-12-20T07:25:22.515Z,23
2022-12-20T07:26:30.921Z,22.5
2022-12-20T07:27:39.089Z,23.3
2022-12-20T07:28:46.555Z,20.5
2022-12-20T07:29:55.176Z,20.8
2022-12-20T07:31:02.309Z,18.8
2022-12-20T07:32:10.323Z,20.3
2022-12-20T07:33:18.663Z,19.7
2022-12-20T07:34:25.776Z,20.6
2022-12-20T07:35:32.785Z,19.3
2022-12-20T07:36:40.885Z,21.5
2022-12-20T07:37:48.015Z,20
2022-12-20T07:38:55.153Z,19.5
2022-12-20T07:40:02.690Z,21.4
2022-12-20T07:41:09.917Z,22
2022-12-20T07:42:17.260Z,19.4
2022-12-20T07:43:24.188Z,21
2022-12-20T07:44:32.439Z,20.9
2022-12-20T07:45:39.636Z,19.4
2022-12-20T07:46:46.626Z,19
2022-12-20T07:47:54.694Z,20
2022-12-20T07:49:02.120Z,19.6
2022-12-20T07:50:09.070Z,17.8
2022-12-20T07:51:16.312Z,19.4
2022-12-20T07:52:29.075Z,19.6
2022-12-20T07:53:36.912Z,20.2
2022-12-20T07:54:44.237Z,19.4
2022-12-20T07:55:54.801Z,22.3
2022-12-20T07:57:02.841Z,20.1
2022-12-20T07:58:10.189Z,18.9
2022-12-20T07:59:17.338Z,18.9
2022-12-20T08:00:24.317Z,19.4
2022-12-20T08:01:31.849Z,19.9
2022-12-20T08:02:39.599Z,18.4
2022-12-20T08:03:58.019Z,17.6
2022-12-20T08:05:09.049Z,19.3
2022-12-20T08:06:16.568Z,18
2022-12-20T08:07:24.948Z,17.7
2022-12-20T08:08:32.865Z,18
2022-12-20T08:09:40.159Z,18.2
2022-12-20T08:10:48.346Z,17.5
2022-12-20T08:11:55.565Z,19.1
2022-12-20T08:13:02.665Z,18.3
2022-12-20T08:14:09.800Z,17.8
2022-12-20T08:15:17.054Z,17.4
2022-12-20T08:16:24.699Z,17.4
2022-12-20T08:17:32.358Z,18.3
2022-12-20T08:18:39.232Z,18.2
2022-12-20T08:19:46.259Z,17.3
2022-12-20T08:20:53.603Z,17.6
2022-12-20T08:22:01.471Z,17.8
2022-12-20T08:23:09.728Z,17
2022-12-20T08:24:18.450Z,17.5
2022-12-20T08:25:35.955Z,18.1
2022-12-20T08:26:38.773Z,17.9
2022-12-20T08:27:45.851Z,16.7
2022-12-20T08:28:54.210Z,19
2022-12-20T08:30:02.261Z,18.1
2022-12-20T08:31:10.332Z,18.5
2022-12-20T08:32:17.461Z,17.9
2022-12-20T08:33:24.640Z,19.3
2022-12-20T08:34:33.328Z,18.8
2022-12-20T08:35:41.264Z,18.1
2022-12-20T08:36:48.601Z,18.7
2022-12-20T08:37:55.672Z,17.6
2022-12-20T08:39:02.818Z,17.5
2022-12-20T08:40:09.901Z,17.8
2022-12-20T08:41:17.198Z,17.9
2022-12-20T08:42:25.051Z,17.4
2022-12-20T08:43:32.805Z,17.9
2022-12-20T08:44:40.179Z,16.7
2022-12-20T08:45:48.872Z,17.8
2022-12-20T08:46:56.821Z,18
2022-12-20T08:48:03.992Z,16.9
2022-12-20T08:49:11.381Z,17.1
2022-12-20T08:50:19.560Z,16.9
2022-12-20T08:51:27.125Z,16.8
2022-12-20T08:52:34.357Z,16.1
2022-12-20T08:53:41.673Z,16.4
2022-12-20T08:54:48.693Z,16.2
2022-12-20T08:55:56.331Z,17.4
2022-12-20T08:57:14.530Z,17.3
2022-12-20T08:58:22.109Z,17.6
2022-12-20T08:59:30.467Z,16.6
2022-12-20T09:00:37.915Z,16.5
2022-12-20T09:01:46.254Z,17.3
2022-12-20T09:02:54.598Z,18.7
2022-12-20T09:04:01.719Z,17.1
2022-12-20T09:05:10.414Z,17.8
2022-12-20T09:06:18.018Z,17
2022-12-20T09:07:26.382Z,17
2022-12-20T09:08:34.655Z,17.4
2022-12-20T09:09:41.663Z,18.3
2022-12-20T09:10:49.596Z,16.7
2022-12-20T09:11:59.097Z,18.6
2022-12-20T09:13:07.578Z,17.3
2022-12-20T09:14:14.854Z,17
2022-12-20T09:15:22.780Z,17.3
2022-12-20T09:16:29.987Z,17.1
2022-12-20T09:17:38.111Z,17.6
2022-12-20T09:18:45.759Z,16.9
2022-12-20T09:19:53.397Z,17
2022-12-20T09:21:00.725Z,16.1
2022-12-20T09:22:08.490Z,17.4
2022-12-20T09:23:16.118Z,16.7
2022-12-20T09:24:23.801Z,17.7
2022-12-20T09:25:30.937Z,16.5
2022-12-20T09:26:38.257Z,17.2
2022-12-20T09:27:47.094Z,15.7
2022-12-20T09:28:57.044Z,16.8
2022-12-20T09:30:04.064Z,16.8
2022-12-20T09:31:12.851Z,16.6
2022-12-20T09:32:20.329Z,17.7
2022-12-20T09:33:28.426Z,16.5
2022-12-20T09:34:37.626Z,17.3
2022-12-20T09:35:45.229Z,16.4
2022-12-20T09:36:53.429Z,16.5
2022-12-20T09:38:01.131Z,17.5
2022-12-20T09:39:08.141Z,16
2022-12-20T09:40:16.363Z,16.8
2022-12-20T09:41:24.291Z,16.8
2022-12-20T09:42:34.149Z,18
2022-12-20T09:43:41.378Z,17.1
2022-12-20T09:44:48.497Z,17.4
2022-12-20T09:45:56.006Z,17.4
2022-12-20T09:47:08.379Z,17.5
2022-12-20T09:48:15.672Z,17.7
2022-12-20T09:49:22.995Z,17.5
2022-12-20T09:50:32.970Z,17.4
2022-12-20T09:51:46.193Z,16.6
2022-12-20T09:52:58.359Z,16.9
2022-12-20T09:54:11.244Z,16.9
2022-12-20T09:55:25.400Z,17.8
2022-12-20T09:56:36.968Z,16.6
2022-12-20T09:57:52.421Z,17.9
2022-12-20T09:59:10.053Z,17.9
2022-12-20T10:00:19.175Z,17.6
2022-12-20T10:01:31.311Z,17.1
2022-12-20T10:02:56.986Z,18.7
2022-12-20T10:03:44.158Z,17.9
2022-12-20T10:04:51.484Z,19.3
2022-12-20T10:05:58.588Z,18.3
2022-12-20T10:07:16.466Z,18.5
2022-12-20T10:08:29.725Z,20.2
2022-12-20T10:09:39.540Z,19.4
2022-12-20T10:10:54.803Z,16.4
2022-12-20T10:12:14.406Z,16.7
2022-12-20T10:13:33.217Z,16.9
2022-12-20T10:14:46.278Z,18.4
2022-12-20T10:16:03.566Z,17.5
2022-12-20T10:17:21.061Z,18.4
2022-12-20T10:18:38.637Z,17.9
2022-12-20T10:19:55.273Z,15.9
2022-12-20T10:21:07.802Z,17.1
2022-12-20T10:22:18.390Z,17.9
2022-12-20T10:23:32.917Z,17.5
2022-12-20T10:24:42.260Z,16.3
2022-12-20T10:25:49.271Z,16.5
2022-12-20T10:26:57.556Z,17.8
2022-12-20T10:28:17.731Z,17.4
2022-12-20T10:29:25.560Z,18.1
2022-12-20T10:30:33.811Z,17.9
2022-12-20T10:31:41.901Z,17.6
2022-12-20T10:32:48.943Z,18.8
2022-12-20T10:33:56.560Z,18.6
2022-12-20T10:35:04.001Z,17.8
2022-12-20T10:36:15.193Z,19.9
2022-12-20T10:37:22.738Z,19.7
2022-12-20T10:38:30.436Z,19.8
2022-12-20T10:39:39.096Z,20.5
2022-12-20T10:41:19.221Z,19.6
2022-12-20T10:42:04.584Z,18.7
2022-12-20T10:43:12.226Z,19.4
2022-12-20T10:44:22.034Z,17.9
2022-12-20T10:45:35.777Z,17.4
2022-12-20T10:46:39.945Z,17.8
2022-12-20T10:47:49.971Z,17.4
2022-12-20T10:48:57.301Z,17.3
2022-12-20T10:50:04.230Z,18.5
2022-12-20T10:51:16.050Z,18.8
2022-12-20T10:52:22.171Z,19.9
2022-12-20T10:53:29.151Z,17.8
2022-12-20T10:54:36.470Z,19.2
2022-12-20T10:55:43.436Z,19
2022-12-20T10:56:50.547Z,18.6
2022-12-20T10:58:00.955Z,18.3
2022-12-20T10:59:07.803Z,18.6
2022-12-20T11:00:21.038Z,19.3
2022-12-20T11:01:30.903Z,18.4
2022-12-20T11:02:41.809Z,20.9
2022-12-20T11:03:46.768Z,19.1
2022-12-20T11:05:01.512Z,20.5
2022-12-20T11:06:14.136Z,19.6
2022-12-20T11:07:21.226Z,19.8
2022-12-20T11:08:50.047Z,20.1
2022-12-20T11:09:36.781Z,18.3
2022-12-20T11:10:44.099Z,18.9
2022-12-20T11:11:52.570Z,19.3
2022-12-20T11:13:07.899Z,19.6
2022-12-20T11:14:23.151Z,18.7
2022-12-20T11:15:31.717Z,19.1
2022-12-20T11:16:38.261Z,19.1
2022-12-20T11:17:45.100Z,18.3
2022-12-20T11:18:52.419Z,17
2022-12-20T11:19:59.448Z,17.8
2022-12-20T11:21:17.766Z,17.3
2022-12-20T11:22:25.382Z,17.9
2022-12-20T11:23:35.536Z,18.2
2022-12-20T11:24:45.353Z,23.6
2022-12-20T11:26:00.489Z,23.6
2022-12-20T11:27:17.711Z,18
2022-12-20T11:28:28.014Z,17.9
2022-12-20T11:29:44.161Z,18.1
2022-12-20T11:30:56.415Z,18.1
2022-12-20T11:32:03.528Z,17.7
2022-12-20T11:33:18.331Z,17.9
2022-12-20T11:34:33.317Z,16.4
2022-12-20T11:35:45.409Z,17.7
2022-12-20T11:37:02.542Z,17.6
2022-12-20T11:38:13.051Z,18.2
2022-12-20T11:39:31.626Z,16.8
2022-12-20T11:40:46.840Z,17.7
2022-12-20T11:42:01.053Z,18.3
2022-12-20T11:43:15.124Z,18.1
2022-12-20T11:44:32.684Z,18.2
2022-12-20T11:45:47.819Z,17.4
2022-12-20T11:47:05.255Z,17.7
2022-12-20T11:48:12.839Z,18.1
2022-12-20T11:49:26.366Z,17.4
2022-12-20T11:50:43.891Z,17.8
2022-12-20T11:52:01.166Z,16.8
2022-12-20T11:53:08.403Z,17.2
2022-12-20T11:54:21.791Z,18.6
2022-12-20T11:55:36.518Z,19
2022-12-20T11:56:45.233Z,17.8
2022-12-20T11:58:17.313Z,17.7
2022-12-20T11:59:04.872Z,17.8
2022-12-20T12:00:22.756Z,18.6
2022-12-20T12:01:30.649Z,18.5
2022-12-20T12:02:46.442Z,18.6
2022-12-20T12:04:00.156Z,18.8
2022-12-20T12:05:11.345Z,20.6
2022-12-20T12:06:18.200Z,18.7
2022-12-20T12:07:25.244Z,19.2
2022-12-20T12:08:32.688Z,18.5
2022-12-20T12:09:44.832Z,19.6
2022-12-20T12:10:57.741Z,19.2
2022-12-20T12:12:07.067Z,17.9
2022-12-20T12:13:12.163Z,18.4
2022-12-20T12:14:22.977Z,18.1
2022-12-20T12:15:38.110Z,18.9
2022-12-20T12:16:56.375Z,19.7
2022-12-20T12:18:03.537Z,20
2022-12-20T12:19:10.576Z,17.7
2022-12-20T12:20:18.623Z,18.8
2022-12-20T12:21:27.038Z,18.1
2022-12-20T12:22:36.588Z,16.8
2022-12-20T12:23:43.740Z,16.8
2022-12-20T12:24:56.042Z,17.6
2022-12-20T12:26:03.269Z,17.4
2022-12-20T12:27:15.840Z,17.9
2022-12-20T12:28:25.888Z,17.7
2022-12-20T12:29:33.051Z,18.3
2022-12-20T12:30:41.071Z,18.3
2022-12-20T12:31:48.553Z,17.2
2022-12-20T12:33:01.144Z,19
2022-12-20T12:34:08.618Z,17.9
2022-12-20T12:35:20.864Z,17.9
2022-12-20T12:36:38.356Z,19.1
2022-12-20T12:37:53.459Z,17.1
2022-12-20T12:39:10.661Z,18.1
2022-12-20T12:40:28.752Z,18.8
2022-12-20T12:41:46.427Z,18.2
2022-12-20T12:42:58.590Z,18.7
2022-12-20T12:44:10.856Z,17.9
2022-12-20T12:45:24.302Z,19.3
2022-12-20T12:46:37.102Z,18.5
2022-12-20T12:47:45.087Z,18.5
2022-12-20T12:48:57.645Z,19
2022-12-20T12:50:08.255Z,18.8
2022-12-20T12:51:16.073Z,17.8
2022-12-20T12:52:32.277Z,17.9
2022-12-20T12:53:41.562Z,18
2022-12-20T12:54:54.319Z,19
2022-12-20T12:56:19.554Z,18
2022-12-20T12:57:19.908Z,18.5
2022-12-20T12:58:27.187Z,18.7
2022-12-20T12:59:34.394Z,18.9
2022-12-20T13:00:41.316Z,18.2
2022-12-20T13:01:54.654Z,18.1
2022-12-20T13:03:07.596Z,17.3
2022-12-20T13:04:17.747Z,16.8
2022-12-20T13:05:30.426Z,17.7
2022-12-20T13:06:38.943Z,17.7
2022-12-20T13:07:46.020Z,16.6
2022-12-20T13:08:53.223Z,18.3
2022-12-20T13:10:01.130Z,16.8
2022-12-20T13:11:13.478Z,17.5
2022-12-20T13:12:20.750Z,18.1
2022-12-20T13:13:37.859Z,18.5
2022-12-20T13:14:45.384Z,17.9
2022-12-20T13:15:52.764Z,17.8
2022-12-20T13:17:11.915Z,18.1
2022-12-20T13:18:07.489Z,18.8
2022-12-20T13:19:14.750Z,18.7
2022-12-20T13:20:31.606Z,19.8
2022-12-20T13:21:39.091Z,19.9
2022-12-20T13:22:50.107Z,19.8
2022-12-20T13:24:07.602Z,19.4
2022-12-20T13:25:28.156Z,19.5
2022-12-20T13:26:34.159Z,20.1
2022-12-20T13:27:46.705Z,20.3
2022-12-20T13:28:56.544Z,20.2
2022-12-20T13:30:03.472Z,19.7
2022-12-20T13:31:10.959Z,19.3
2022-12-20T13:32:19.512Z,19.6
2022-12-20T13:33:37.544Z,19.9
2022-12-20T13:34:48.092Z,20
2022-12-20T13:35:58.600Z,20
2022-12-20T13:37:07.595Z,19.5
2022-12-20T13:38:25.196Z,20.2
2022-12-20T13:39:42.776Z,20.1
2022-12-20T13:40:49.856Z,19.1
2022-12-20T13:42:01.607Z,19
2022-12-20T13:43:17.003Z,21.3
2022-12-20T13:44:24.219Z,19.1
2022-12-20T13:45:36.842Z,19.3
2022-12-20T13:46:43.867Z,18.8
2022-12-20T13:48:00.179Z,19.9
2022-12-20T13:49:07.218Z,19.8
2022-12-20T13:50:15.404Z,18.8
2022-12-20T13:51:33.450Z,20.1
2022-12-20T13:52:44.968Z,19.3
2022-12-20T13:53:52.795Z,18.9
2022-12-20T13:55:00.281Z,17.7
2022-12-20T13:56:07.248Z,18.6
2022-12-20T13:57:25.802Z,18.3
2022-12-20T13:58:33.603Z,16.9
2022-12-20T13:59:43.065Z,18
2022-12-20T14:00:53.204Z,18.6
2022-12-20T14:02:08.485Z,17.8
2022-12-20T14:03:22.849Z,16.6
2022-12-20T14:04:31.060Z,18.9
2022-12-20T14:05:44.437Z,19.1
2022-12-20T14:06:51.690Z,19.2
2022-12-20T14:08:02.486Z,19.2
2022-12-20T14:09:19.447Z,19.5
2022-12-20T14:10:35.594Z,18.8
2022-12-20T14:11:45.077Z,17.9
2022-12-20T14:12:52.240Z,19.4
2022-12-20T14:13:59.522Z,19.9
2022-12-20T14:15:07.092Z,19
2022-12-20T14:16:24.382Z,18.6
2022-12-20T14:17:32.442Z,18.8
2022-12-20T14:18:39.612Z,19
2022-12-20T14:19:46.735Z,18
2022-12-20T14:21:01.934Z,20.4
2022-12-20T14:22:09.133Z,18.9
2022-12-20T14:23:16.164Z,20
2022-12-20T14:24:23.354Z,18
2022-12-20T14:25:30.431Z,19.6
2022-12-20T14:26:46.078Z,19.9
2022-12-20T14:27:53.634Z,19.5
2022-12-20T14:29:01.028Z,20.5
2022-12-20T14:30:08.156Z,19.1
2022-12-20T14:31:25.584Z,19.6
2022-12-20T14:32:35.163Z,19.4
2022-12-20T14:33:42.426Z,20.3
2022-12-20T14:34:49.514Z,19.1
2022-12-20T14:35:56.628Z,20.5
2022-12-20T14:37:22.088Z,20.3
2022-12-20T14:38:37.235Z,21.3
2022-12-20T14:39:45.405Z,21.3
2022-12-20T14:40:57.830Z,20
2022-12-20T14:42:04.853Z,20.3
2022-12-20T14:43:11.882Z,20.8
2022-12-20T14:44:18.974Z,20.9
2022-12-20T14:45:27.002Z,18.5
2022-12-20T14:46:34.753Z,20.3
2022-12-20T14:47:42.918Z,19.9
2022-12-20T14:48:58.542Z,21.3
2022-12-20T14:50:16.061Z,21
2022-12-20T14:51:23.208Z,21.6
2022-12-20T14:52:30.305Z,20.4
2022-12-20T14:53:37.462Z,20.1
2022-12-20T14:55:58.905Z,20.7
2022-12-20T14:57:08.848Z,20
2022-12-20T14:58:26.658Z,20.9
2022-12-20T14:59:34.133Z,21.5
2022-12-20T15:00:41.153Z,21.4
2022-12-20T15:01:49.271Z,21.2
2022-12-20T15:02:57.120Z,22
2022-12-20T15:04:05.260Z,20.8
2022-12-20T15:05:22.748Z,18.1
2022-12-20T15:06:34.973Z,20.6
2022-12-20T15:07:45.842Z,20.1
2022-12-20T15:08:53.173Z,20.3
2022-12-20T15:10:01.545Z,21
2022-12-20T15:11:09.157Z,20.7
2022-12-20T15:12:16.473Z,21.7
2022-12-20T15:13:24.157Z,20.5
2022-12-20T15:14:34.037Z,20.3
2022-12-20T15:15:41.260Z,21.2
2022-12-20T15:16:48.356Z,21.6
2022-12-20T15:17:56.728Z,21.3
2022-12-20T15:19:05.082Z,22.1
2022-12-20T15:20:12.319Z,22.1
2022-12-20T15:21:20.222Z,20.6
2022-12-20T15:22:35.399Z,20.1
2022-12-20T15:23:42.994Z,20.1
2022-12-20T15:24:50.083Z,20.3
2022-12-20T15:25:57.088Z,20.3